Time;durP1;ratioP1;P1;durP2;ratioP2;P2;SDS_P1;SDS_P2;PMS_P1;PMS_P2;Temp;Humidity;BMP_temperature;BMP_pressure;BME280_temperature;BME280_humidity;BME280_pressure;Samples;Min_cycle;Max_cycle;Signal;HPM_P1;HPM_P2
2021/09/30 00:00:33;;;;;;;;;4.75;4.50;;;;;11.41;72.49;102642.28;4975615;28;45509;-71
2021/09/30 00:02:58;;;;;;;;;4.25;3.00;;;;;11.38;73.04;102633.56;4988971;28;45375;-72
2021/09/30 00:05:23;;;;;;;;;3.75;3.75;;;;;11.36;72.84;102633.59;4973545;28;45506;-72
2021/09/30 00:07:49;;;;;;;;;2.75;2.75;;;;;11.34;73.01;102634.53;4976913;28;46241;-71
2021/09/30 00:10:19;;;;;;;;;4.00;4.00;;;;;11.30;72.88;102632.84;4965400;28;45263;-72
2021/09/30 00:12:59;;;;;;;;;4.00;3.00;;;;;11.27;73.03;102632.88;4970522;28;45491;-71
2021/09/30 00:32:30;;;;;;;;;3.00;3.00;;;;;11.21;72.72;102644.38;4975533;28;46155;-71
2021/09/30 00:35:44;;;;;;;;;3.00;3.00;;;;;11.08;72.95;102641.06;4953557;28;45463;-71
2021/09/30 00:40:28;;;;;;;;;3.00;3.00;;;;;10.94;73.20;102624.59;4951170;28;45824;-71
2021/09/30 00:48:10;;;;;;;;;3.00;3.00;;;;;10.98;73.00;102632.44;4953310;28;45463;-72
2021/09/30 00:51:05;;;;;;;;;3.75;3.00;;;;;10.96;73.13;102630.69;4951925;28;47290;-71
2021/09/30 01:25:12;;;;;;;;;3.25;3.00;;;;;10.67;74.02;102603.06;4964662;28;45492;-71
2021/09/30 02:19:08;;;;;;;;;2.25;2.00;;;;;10.34;74.69;102608.75;4936394;28;45713;-71
2021/09/30 02:40:12;;;;;;;;;3.50;3.00;;;;;10.17;75.21;102596.63;4974513;28;45907;-72
2021/09/30 02:59:21;;;;;;;;;1.00;1.00;;;;;10.14;75.55;102595.81;4965475;28;45417;-72
2021/09/30 03:01:48;;;;;;;;;3.00;2.00;;;;;10.13;75.98;102576.56;4964843;28;45592;-71
2021/09/30 03:04:17;;;;;;;;;6.00;2.50;;;;;10.18;75.99;102581.75;4986728;28;45751;-71
2021/09/30 03:06:44;;;;;;;;;1.00;1.00;;;;;10.19;75.99;102575.59;4975528;28;45512;-71
2021/09/30 03:09:12;;;;;;;;;1.00;1.00;;;;;10.10;75.93;102557.31;4971366;28;45556;-71
2021/09/30 03:11:40;;;;;;;;;1.25;0.25;;;;;10.19;76.11;102576.47;4971919;28;47417;-72
2021/09/30 03:14:08;;;;;;;;;2.00;2.00;;;;;10.21;75.50;102576.44;4976980;28;45448;-72
2021/09/30 03:16:47;;;;;;;;;2.00;2.00;;;;;10.19;76.03;102581.72;4976532;28;45456;-71
2021/09/30 03:20:03;;;;;;;;;2.00;2.00;;;;;10.16;75.88;102571.25;4972555;28;46022;-72
2021/09/30 03:24:39;;;;;;;;;1.00;1.00;;;;;10.15;75.88;102587.91;4965301;28;45390;-72
2021/09/30 03:27:05;;;;;;;;;3.00;1.75;;;;;10.14;75.77;102588.78;4972897;28;45850;-72
2021/09/30 03:29:31;;;;;;;;;2.00;2.00;;;;;10.10;75.72;102592.34;4976678;28;45546;-72
2021/09/30 03:31:58;;;;;;;;;3.00;1.25;;;;;10.07;75.89;102596.75;4971000;28;45574;-71
2021/09/30 03:34:24;;;;;;;;;1.50;1.50;;;;;10.03;75.42;102590.69;4967846;28;45522;-72
2021/09/30 03:36:50;;;;;;;;;1.75;1.75;;;;;10.07;75.54;102600.25;4971669;28;45432;-72
2021/09/30 03:39:22;;;;;;;;;1.50;1.50;;;;;10.03;75.82;102590.69;4972388;28;46223;-72
2021/09/30 03:41:48;;;;;;;;;1.00;1.00;;;;;10.04;75.79;102595.03;4973043;28;46335;-72
2021/09/30 03:44:13;;;;;;;;;4.00;3.00;;;;;10.04;76.12;102594.16;4974277;28;45586;-72
2021/09/30 03:46:39;;;;;;;;;1.50;1.50;;;;;10.02;75.91;102588.91;4963674;28;48052;-71
2021/09/30 03:49:10;;;;;;;;;3.00;3.00;;;;;10.00;75.93;102584.56;4971972;28;45430;-72
2021/09/30 03:51:52;;;;;;;;;3.50;2.25;;;;;10.01;76.25;102591.56;4971006;28;47455;-72
2021/09/30 03:59:20;;;;;;;;;3.00;2.00;;;;;10.01;76.12;102594.19;4974264;28;45553;-72
2021/09/30 04:01:49;;;;;;;;;1.50;1.50;;;;;10.02;76.44;102602.03;4991076;28;47671;-72
2021/09/30 04:04:15;;;;;;;;;2.75;2.75;;;;;10.01;76.17;102596.81;4975541;28;45668;-72
2021/09/30 04:06:41;;;;;;;;;6.00;1.50;;;;;9.98;76.27;102597.72;4970297;28;45539;-72
2021/09/30 04:09:06;;;;;;;;;3.00;2.00;;;;;10.00;76.16;102609.09;4974429;28;45666;-72
2021/09/30 04:11:31;;;;;;;;;2.00;2.00;;;;;9.98;76.19;102610.88;4973094;28;45319;-72
2021/09/30 04:13:57;;;;;;;;;3.50;1.25;;;;;9.95;76.24;102603.00;4972125;28;48666;-72
2021/09/30 04:16:26;;;;;;;;;3.25;2.00;;;;;9.99;76.35;102615.22;4973735;28;45852;-72
2021/09/30 04:18:51;;;;;;;;;2.00;2.00;;;;;9.94;76.38;102612.66;4971064;28;46032;-72
2021/09/30 04:21:17;;;;;;;;;2.00;2.00;;;;;9.99;76.51;102619.63;4975346;28;51254;-72
2021/09/30 04:23:42;;;;;;;;;6.00;3.00;;;;;9.97;76.01;102617.00;4975186;28;57766;-72
2021/09/30 04:26:07;;;;;;;;;3.00;3.00;;;;;9.97;76.44;102611.75;4973518;28;45398;-72
2021/09/30 04:28:33;;;;;;;;;2.50;2.00;;;;;9.99;76.45;102614.38;4975119;28;45400;-72
2021/09/30 04:30:58;;;;;;;;;3.00;1.75;;;;;9.96;76.14;102615.25;4969424;28;47249;-72
2021/09/30 04:33:23;;;;;;;;;5.50;2.00;;;;;9.85;76.19;102596.97;4970787;28;45455;-72
2021/09/30 04:35:49;;;;;;;;;3.00;1.00;;;;;9.94;76.32;102611.78;4975985;28;45406;-72
2021/09/30 04:38:15;;;;;;;;;1.00;1.00;;;;;9.92;75.93;102610.94;4973288;28;45332;-71
2021/09/30 04:40:41;;;;;;;;;3.25;2.00;;;;;9.93;76.15;102616.16;4973797;28;46215;-72
2021/09/30 04:43:06;;;;;;;;;4.50;2.75;;;;;9.92;76.06;102624.06;4963810;28;45352;-72
2021/09/30 04:45:31;;;;;;;;;3.00;2.00;;;;;9.90;76.30;102624.06;4968547;28;45389;-71
2021/09/30 04:47:57;;;;;;;;;2.50;2.00;;;;;9.86;76.35;102614.47;4972685;28;45544;-72
2021/09/30 04:50:22;;;;;;;;;3.75;3.00;;;;;9.89;76.39;102614.44;4967635;28;45415;-72
2021/09/30 04:52:47;;;;;;;;;3.25;2.25;;;;;9.89;76.57;102608.34;4975616;28;45516;-72
2021/09/30 04:55:13;;;;;;;;;3.00;3.00;;;;;9.86;76.38;102596.09;4975347;28;45293;-71
2021/09/30 04:57:38;;;;;;;;;4.50;3.00;;;;;9.85;76.11;102596.97;4974030;28;45941;-71
2021/09/30 05:00:04;;;;;;;;;2.00;2.00;;;;;9.81;76.07;102591.75;4974758;28;46319;-72
2021/09/30 05:02:29;;;;;;;;;3.00;3.00;;;;;9.81;76.19;102589.13;4970363;28;45547;-72
2021/09/30 05:04:55;;;;;;;;;3.00;3.00;;;;;9.81;76.42;102594.41;4971731;28;45477;-72
2021/09/30 05:07:20;;;;;;;;;4.25;3.00;;;;;9.77;76.29;102593.56;4972616;28;45587;-71
2021/09/30 05:09:48;;;;;;;;;5.25;2.00;;;;;9.77;76.61;102604.06;4971405;28;54991;-72
2021/09/30 05:12:16;;;;;;;;;7.50;3.25;;;;;9.75;76.78;102608.44;4967605;28;45938;-71
2021/09/30 05:14:41;;;;;;;;;4.25;3.00;;;;;9.73;76.28;102602.34;4974827;28;45371;-72
2021/09/30 05:17:07;;;;;;;;;5.25;3.00;;;;;9.71;76.72;102598.91;4970665;28;45400;-72
2021/09/30 05:19:32;;;;;;;;;2.25;0.50;;;;;9.73;76.39;102597.09;4970253;28;46586;-72
2021/09/30 05:21:57;;;;;;;;;3.00;3.00;;;;;9.66;76.12;102591.06;4969840;28;50574;-71
2021/09/30 05:24:23;;;;;;;;;3.00;2.25;;;;;9.76;76.44;102604.06;4966820;28;45549;-71
2021/09/30 05:26:48;;;;;;;;;3.67;2.33;;;;;9.75;76.26;102615.47;4972748;28;56473;-71
2021/09/30 05:29:13;;;;;;;;;3.50;2.00;;;;;9.67;76.35;102603.28;4973240;28;50250;-72
2021/09/30 05:31:39;;;;;;;;;3.50;2.50;;;;;9.76;76.66;102611.94;4964882;28;45325;-72
2021/09/30 05:34:04;;;;;;;;;8.50;4.50;;;;;9.77;76.47;102611.09;4985855;28;45407;-71
2021/09/30 05:36:29;;;;;;;;;6.00;3.00;;;;;9.74;76.52;102604.09;4975031;28;45815;-71
2021/09/30 05:38:55;;;;;;;;;2.75;2.75;;;;;9.76;76.56;102602.34;4972419;28;45880;-72
2021/09/30 05:41:21;;;;;;;;;3.00;3.00;;;;;9.72;76.73;102594.50;4974428;28;45553;-72
2021/09/30 05:43:53;;;;;;;;;2.75;2.00;;;;;9.77;76.58;102604.06;4975145;28;45455;-74
2021/09/30 05:46:32;;;;;;;;;6.00;3.25;;;;;9.71;76.67;102604.13;4979054;28;48359;-73
2021/09/30 05:48:57;;;;;;;;;2.25;2.25;;;;;9.74;76.93;102608.47;4974790;28;46131;-73
2021/09/30 05:51:22;;;;;;;;;3.50;3.00;;;;;9.73;76.56;102615.50;4979235;28;45497;-72
2021/09/30 05:53:48;;;;;;;;;4.67;2.67;;;;;9.71;76.83;102609.41;4971744;28;51181;-71
2021/09/30 05:56:13;;;;;;;;;6.00;6.00;;;;;9.67;76.69;102610.28;4979143;28;45489;-72
2021/09/30 05:58:38;;;;;;;;;4.75;4.75;;;;;9.71;77.10;102619.91;4974891;28;48464;-73
2021/09/30 06:14:01;;;;;;;;;6.25;4.50;;;;;9.91;76.66;102622.31;4969279;28;45455;-72
2021/09/30 06:16:26;;;;;;;;;7.25;4.25;;;;;9.96;76.81;102615.25;4969933;28;45273;-72
2021/09/30 06:18:53;;;;;;;;;6.25;2.75;;;;;10.02;76.72;102611.69;4966947;28;46107;-72
2021/09/30 06:21:18;;;;;;;;;3.00;3.00;;;;;10.11;76.54;102609.84;4971656;28;45443;-71
2021/09/30 06:23:44;;;;;;;;;5.00;5.00;;;;;10.25;76.38;102611.47;4981192;28;45402;-72
2021/09/30 06:26:09;;;;;;;;;6.25;3.25;;;;;10.36;76.30;102614.84;4972371;28;45459;-72
2021/09/30 06:28:35;;;;;;;;;4.00;3.00;;;;;10.45;76.11;102617.38;4980729;28;46050;-72
2021/09/30 06:31:01;;;;;;;;;4.00;3.00;;;;;10.55;75.63;102618.13;4980710;28;45917;-72
2021/09/30 06:33:26;;;;;;;;;5.00;3.00;;;;;10.68;75.79;102617.94;4978808;28;45711;-72
2021/09/30 06:35:52;;;;;;;;;4.00;4.00;;;;;10.70;75.32;102599.50;4981006;28;45369;-72
2021/09/30 06:38:18;;;;;;;;;3.25;3.25;;;;;10.89;75.59;102622.03;4980617;28;45565;-72
2021/09/30 06:40:45;;;;;;;;;5.75;3.75;;;;;10.99;75.33;102612.25;4981205;28;45434;-72
2021/09/30 06:43:11;;;;;;;;;9.25;4.00;;;;;11.07;74.79;102615.66;4980328;28;45448;-72
2021/09/30 06:45:37;;;;;;;;;5.75;4.00;;;;;11.12;74.60;102613.81;4980528;28;45476;-72
2021/09/30 06:48:02;;;;;;;;;6.00;5.50;;;;;11.16;74.58;102610.22;4980491;28;45503;-72
2021/09/30 06:50:28;;;;;;;;;4.00;4.00;;;;;11.21;74.17;102608.38;4965483;28;45567;-72
2021/09/30 06:52:53;;;;;;;;;3.50;3.00;;;;;11.21;74.33;102607.53;4978036;28;45884;-71
2021/09/30 06:55:18;;;;;;;;;7.00;4.00;;;;;11.06;74.05;102590.19;4977735;28;45410;-72
2021/09/30 06:57:46;;;;;;;;;6.25;5.75;;;;;11.13;74.10;102604.16;4977166;28;46215;-71
2021/09/30 07:00:12;;;;;;;;;4.00;4.00;;;;;11.15;73.93;102605.84;4970024;28;45848;-72
2021/09/30 07:02:39;;;;;;;;;8.25;4.00;;;;;11.13;73.65;102607.66;4977128;28;45443;-71
2021/09/30 07:05:07;;;;;;;;;8.25;7.00;;;;;11.23;74.18;102613.66;4975039;28;45475;-72
2021/09/30 07:07:33;;;;;;;;;10.00;6.00;;;;;11.35;73.76;102615.22;4974284;28;46568;-72
2021/09/30 07:09:59;;;;;;;;;8.75;5.50;;;;;11.53;73.66;102595.59;4976250;28;45490;-72
2021/09/30 07:12:24;;;;;;;;;7.75;6.00;;;;;11.75;73.34;102599.59;4975801;28;45440;-72
2021/09/30 07:14:49;;;;;;;;;11.50;6.50;;;;;11.93;72.71;102601.06;4990998;28;45864;-71
2021/09/30 07:17:15;;;;;;;;;9.75;5.50;;;;;12.31;72.38;102595.03;4976102;28;45563;-71
2021/09/30 07:19:40;;;;;;;;;8.75;7.00;;;;;12.58;71.68;102590.97;4977835;28;45385;-72
2021/09/30 07:22:07;;;;;;;;;6.75;5.25;;;;;12.93;71.64;102594.56;4976403;28;45854;-72
2021/09/30 07:24:33;;;;;;;;;9.50;7.50;;;;;14.03;71.30;102591.78;4976841;28;45404;-71
2021/09/30 07:27:00;;;;;;;;;4.25;4.00;;;;;15.62;68.94;102592.16;4975703;28;46294;-72
2021/09/30 07:29:25;;;;;;;;;8.50;5.00;;;;;16.77;66.21;102596.81;4976805;28;45988;-72
2021/09/30 07:31:51;;;;;;;;;6.25;4.00;;;;;17.24;63.45;102606.47;4972677;28;45399;-72
2021/09/30 07:34:16;;;;;;;;;11.50;7.75;;;;;17.91;62.96;102607.16;4966592;28;45455;-72
2021/09/30 07:36:44;;;;;;;;;6.75;5.00;;;;;19.21;61.73;102605.50;4969188;28;46276;-72
2021/09/30 07:39:10;;;;;;;;;8.00;6.50;;;;;19.71;58.48;102592.31;4966706;28;46532;-72
2021/09/30 07:41:37;;;;;;;;;8.00;7.75;;;;;19.99;57.56;102594.44;4975974;28;45612;-72
2021/09/30 07:44:04;;;;;;;;;7.50;7.00;;;;;20.91;56.51;102599.22;4976605;28;45475;-72
2021/09/30 07:46:31;;;;;;;;;7.00;6.00;;;;;21.88;54.67;102598.81;4977102;28;46080;-72
2021/09/30 07:48:57;;;;;;;;;8.50;6.75;;;;;22.32;53.14;102592.50;4976024;28;45661;-72
2021/09/30 07:51:23;;;;;;;;;8.00;6.75;;;;;22.41;52.05;102588.41;4968335;28;45369;-72
2021/09/30 07:53:48;;;;;;;;;7.25;6.00;;;;;22.93;52.06;102595.78;4976581;28;45690;-72
2021/09/30 07:56:13;;;;;;;;;11.50;7.00;;;;;23.44;51.15;102596.81;4975109;28;46455;-72
2021/09/30 07:58:39;;;;;;;;;5.50;4.75;;;;;24.42;49.51;102597.16;4976146;28;45483;-72
2021/09/30 08:01:04;;;;;;;;;6.75;5.00;;;;;25.66;49.37;102599.53;4965068;28;47002;-72
2021/09/30 08:03:29;;;;;;;;;4.50;4.50;;;;;27.16;46.50;102592.88;4968495;28;51034;-72
2021/09/30 08:05:56;;;;;;;;;3.25;3.25;;;;;28.45;44.88;102596.09;4976309;28;45982;-72
2021/09/30 08:08:21;;;;;;;;;5.25;3.25;;;;;29.78;42.76;102591.88;4976063;28;45795;-72
2021/09/30 08:10:46;;;;;;;;;4.75;4.25;;;;;30.99;40.75;102590.84;4976794;28;45391;-72
2021/09/30 08:13:12;;;;;;;;;11.75;6.50;;;;;31.99;39.99;102597.75;4976418;28;45512;-72
2021/09/30 08:15:37;;;;;;;;;4.25;4.25;;;;;32.85;37.59;102599.47;4974238;28;46538;-72
2021/09/30 08:18:03;;;;;;;;;9.25;6.00;;;;;33.25;35.77;102595.94;4976194;28;45925;-72
2021/09/30 08:20:29;;;;;;;;;6.25;4.50;;;;;33.85;34.96;102601.00;4961003;28;45370;-72
2021/09/30 08:22:54;;;;;;;;;6.50;5.00;;;;;34.61;34.72;102602.28;4965951;28;45608;-72
2021/09/30 08:25:22;;;;;;;;;4.25;4.25;;;;;35.54;33.32;102604.84;4974619;28;46804;-72
2021/09/30 08:27:47;;;;;;;;;5.25;4.75;;;;;35.88;31.68;102603.47;4976429;28;45580;-72
2021/09/30 08:30:13;;;;;;;;;5.50;5.00;;;;;35.60;31.24;102607.88;4975698;28;45424;-72
2021/09/30 08:32:38;;;;;;;;;5.75;4.75;;;;;35.78;31.12;102611.09;4976359;28;45365;-72
2021/09/30 08:35:06;;;;;;;;;12.00;6.00;;;;;36.33;30.66;102612.50;4976172;28;45297;-72
2021/09/30 08:37:32;;;;;;;;;8.50;7.00;;;;;36.72;29.58;102608.59;4976089;28;45825;-72
2021/09/30 08:39:58;;;;;;;;;5.75;4.50;;;;;37.21;28.79;102611.41;4973456;28;47642;-72
2021/09/30 08:42:24;;;;;;;;;7.50;6.00;;;;;37.95;28.51;102612.84;4975719;28;45643;-72
2021/09/30 08:44:49;;;;;;;;;8.00;7.50;;;;;38.50;27.41;102619.25;4975987;28;45553;-72
2021/09/30 08:47:15;;;;;;;;;8.00;7.00;;;;;38.56;27.43;102616.53;4975936;28;45388;-72
2021/09/30 08:49:40;;;;;;;;;8.50;7.75;;;;;39.13;26.93;102611.59;4976449;28;45286;-72
2021/09/30 08:52:05;;;;;;;;;5.50;5.50;;;;;39.64;26.37;102605.50;4975570;28;45287;-72
2021/09/30 08:54:31;;;;;;;;;5.50;3.75;;;;;40.09;25.78;102597.31;4975275;28;45596;-72
2021/09/30 08:56:56;;;;;;;;;7.00;5.00;;;;;40.21;25.10;102597.50;4985366;28;45415;-72
2021/09/30 08:59:29;;;;;;;;;5.00;4.00;;;;;40.59;25.24;102598.38;4974267;28;45523;-72
2021/09/30 09:02:14;;;;;;;;;3.75;3.25;;;;;41.10;23.54;102597.41;4976375;28;45447;-72
2021/09/30 09:04:58;;;;;;;;;2.75;2.00;;;;;41.28;23.00;102591.09;4969930;28;47215;-72
2021/09/30 09:07:28;;;;;;;;;5.25;3.25;;;;;41.46;23.28;102590.34;4974871;28;45345;-72
2021/09/30 09:09:55;;;;;;;;;0.00;0.00;;;;;41.88;22.84;102591.38;4975555;28;45506;-72
2021/09/30 09:12:21;;;;;;;;;2.00;1.25;;;;;41.96;22.54;102580.00;4975452;28;45400;-72
2021/09/30 09:14:46;;;;;;;;;3.00;1.25;;;;;42.26;22.04;102584.75;4975627;28;46257;-72
2021/09/30 09:17:14;;;;;;;;;1.50;1.00;;;;;42.68;21.90;102576.53;4975294;28;45424;-72
2021/09/30 09:19:44;;;;;;;;;2.75;1.00;;;;;42.93;22.11;102579.09;4974749;28;45502;-72
2021/09/30 09:22:17;;;;;;;;;2.00;2.00;;;;;42.90;20.96;102566.59;4974742;28;45354;-72
2021/09/30 09:24:57;;;;;;;;;0.75;0.75;;;;;42.62;20.82;102578.31;4974992;28;46553;-72
2021/09/30 09:27:23;;;;;;;;;2.00;1.00;;;;;42.31;20.73;102568.31;4971323;28;45514;-72
2021/09/30 09:29:49;;;;;;;;;0.00;0.00;;;;;42.15;20.37;102572.56;4975737;28;45397;-72
2021/09/30 09:32:14;;;;;;;;;0.00;0.00;;;;;41.50;20.69;102563.09;4975328;28;45338;-72
2021/09/30 09:34:40;;;;;;;;;1.00;0.75;;;;;40.89;22.13;102570.19;4975515;28;48670;-72
2021/09/30 09:37:37;;;;;;;;;1.00;0.75;;;;;39.98;21.33;102565.78;4974570;28;45401;-72
2021/09/30 09:40:18;;;;;;;;;2.00;1.00;;;;;39.03;22.06;102565.25;4978215;28;45503;-72
2021/09/30 09:42:45;;;;;;;;;0.50;0.00;;;;;38.16;22.33;102559.72;4974794;28;45598;-72
2021/09/30 09:45:13;;;;;;;;;0.00;0.00;;;;;37.06;22.30;102559.41;4975089;28;47478;-73
2021/09/30 09:47:40;;;;;;;;;0.00;0.00;;;;;36.43;22.60;102560.22;4975023;28;45486;-72
2021/09/30 09:50:12;;;;;;;;;0.00;0.00;;;;;35.62;22.79;102559.31;4975299;28;45809;-72
2021/09/30 09:52:50;;;;;;;;;0.50;0.00;;;;;34.76;23.19;102561.38;4962130;28;45532;-72
2021/09/30 09:55:25;;;;;;;;;0.00;0.00;;;;;33.84;23.79;102563.84;4971854;28;45757;-72
2021/09/30 09:57:58;;;;;;;;;0.00;0.00;;;;;33.42;23.99;102562.25;4970021;28;45520;-72
2021/09/30 10:00:24;;;;;;;;;0.00;0.00;;;;;33.01;24.80;102566.84;4974995;28;45462;-72
2021/09/30 10:02:51;;;;;;;;;0.00;0.00;;;;;32.86;25.37;102558.44;4974837;28;45518;-72
2021/09/30 10:05:17;;;;;;;;;1.75;0.50;;;;;32.71;24.62;102562.84;4974181;28;46052;-72
2021/09/30 10:07:43;;;;;;;;;0.00;0.00;;;;;32.47;25.13;102556.34;4975649;28;45403;-72
2021/09/30 10:10:09;;;;;;;;;0.00;0.00;;;;;32.55;25.17;102554.66;4974739;28;45833;-72
2021/09/30 10:12:34;;;;;;;;;1.75;0.00;;;;;32.48;25.12;102549.03;4974658;28;45529;-72
2021/09/30 10:15:00;;;;;;;;;0.00;0.00;;;;;32.43;25.43;102544.09;4974583;28;46386;-72
2021/09/30 10:17:26;;;;;;;;;0.00;0.00;;;;;32.52;25.38;102549.53;4974805;28;45806;-72
2021/09/30 10:19:52;;;;;;;;;0.75;0.00;;;;;32.33;25.82;102542.50;4975100;28;45328;-72
2021/09/30 10:22:18;;;;;;;;;0.00;0.00;;;;;32.03;26.53;102546.63;4974543;28;45511;-72
2021/09/30 10:24:43;;;;;;;;;1.00;0.75;;;;;31.48;25.81;102536.09;4974296;28;45508;-72
2021/09/30 10:27:11;;;;;;;;;0.75;0.75;;;;;30.80;26.85;102532.16;4972256;28;45369;-72
2021/09/30 10:29:47;;;;;;;;;0.25;0.00;;;;;30.21;27.63;102546.22;4974998;28;45388;-72
2021/09/30 10:32:16;;;;;;;;;1.50;0.25;;;;;29.51;27.96;102540.28;4976723;28;45369;-72
2021/09/30 10:34:45;;;;;;;;;0.25;0.25;;;;;29.14;28.41;102535.66;4975853;28;45622;-72
2021/09/30 10:37:25;;;;;;;;;0.00;0.00;;;;;28.81;28.58;102535.03;4977487;28;46117;-72
2021/09/30 10:40:13;;;;;;;;;1.00;1.00;;;;;28.43;29.46;102537.72;4992686;28;45570;-72
2021/09/30 10:42:56;;;;;;;;;0.50;0.25;;;;;28.08;29.17;102542.53;4977475;28;45508;-72
2021/09/30 10:45:26;;;;;;;;;2.00;0.00;;;;;27.88;29.55;102529.09;4979076;28;45510;-70
2021/09/30 10:47:53;;;;;;;;;1.00;0.00;;;;;27.87;30.42;102530.09;4977682;28;45351;-72
2021/09/30 10:50:19;;;;;;;;;2.00;0.00;;;;;27.83;30.46;102524.97;4977396;28;45527;-72
2021/09/30 10:52:48;;;;;;;;;2.75;2.00;;;;;27.86;30.18;102526.53;4978151;28;45452;-72
2021/09/30 10:55:14;;;;;;;;;0.75;0.00;;;;;27.75;30.72;102523.94;4973919;28;49196;-72
2021/09/30 10:57:42;;;;;;;;;0.00;0.00;;;;;27.65;30.60;102526.53;4969267;28;45533;-72
2021/09/30 11:00:09;;;;;;;;;1.75;0.00;;;;;27.24;30.30;102527.41;4976577;28;45463;-72
2021/09/30 11:02:59;;;;;;;;;2.00;0.00;;;;;26.97;31.00;102523.34;4977488;28;45471;-72
2021/09/30 11:05:25;;;;;;;;;1.50;1.00;;;;;26.14;31.09;102510.44;4977166;28;46417;-72
2021/09/30 11:08:35;;;;;;;;;0.00;0.00;;;;;25.93;31.94;102510.34;4977725;28;45437;-72
2021/09/30 11:11:07;;;;;;;;;0.00;0.00;;;;;25.84;31.46;102499.44;4962282;28;45344;-72
2021/09/30 11:13:39;;;;;;;;;2.00;1.00;;;;;25.59;32.42;102495.13;4965849;28;45533;-72
2021/09/30 11:16:17;;;;;;;;;0.00;0.00;;;;;25.46;32.39;102489.84;4974497;28;46555;-72
2021/09/30 11:18:44;;;;;;;;;2.00;0.75;;;;;25.36;33.06;102492.38;4976530;28;45719;-72
2021/09/30 11:21:28;;;;;;;;;1.00;1.00;;;;;25.32;33.05;102482.88;4977041;28;45347;-72
2021/09/30 11:23:54;;;;;;;;;0.50;0.25;;;;;25.32;33.10;102479.28;4977194;28;45408;-72
2021/09/30 11:26:19;;;;;;;;;0.00;0.00;;;;;25.16;32.87;102477.81;4976211;28;45768;-72
2021/09/30 11:28:45;;;;;;;;;1.25;1.25;;;;;25.02;32.16;102471.75;4976571;28;45725;-72
2021/09/30 11:31:20;;;;;;;;;0.00;0.00;;;;;24.89;32.88;102471.81;4977030;28;45644;-72
2021/09/30 11:33:45;;;;;;;;;0.00;0.00;;;;;24.71;33.40;102447.19;4971141;28;45481;-72
2021/09/30 11:36:11;;;;;;;;;0.00;0.00;;;;;24.68;33.48;102456.31;4966712;28;46406;-72
2021/09/30 11:38:38;;;;;;;;;0.00;0.00;;;;;24.51;33.19;102448.69;4976887;28;45482;-72
2021/09/30 11:41:05;;;;;;;;;0.00;0.00;;;;;24.38;33.93;102454.13;4977622;28;45528;-72
2021/09/30 11:43:31;;;;;;;;;3.00;0.50;;;;;24.28;34.27;102452.22;4976106;28;45485;-72
2021/09/30 11:45:56;;;;;;;;;1.50;1.00;;;;;24.25;34.40;102445.22;4976379;28;45692;-72
2021/09/30 11:48:22;;;;;;;;;0.75;0.00;;;;;24.23;33.71;102449.84;4976100;28;45405;-72
2021/09/30 11:50:56;;;;;;;;;0.75;0.00;;;;;24.09;33.64;102447.31;4976824;28;45407;-72
2021/09/30 11:53:21;;;;;;;;;0.75;0.00;;;;;23.87;34.28;102440.81;4976769;28;45338;-72
2021/09/30 11:55:48;;;;;;;;;0.75;0.75;;;;;23.84;34.59;102442.88;4967510;28;45431;-72
2021/09/30 11:58:15;;;;;;;;;1.25;0.00;;;;;23.84;34.83;102446.41;4975106;28;45724;-72
2021/09/30 12:00:46;;;;;;;;;0.00;0.00;;;;;23.77;34.83;102434.41;4976531;28;45587;-72
2021/09/30 12:03:11;;;;;;;;;0.00;0.00;;;;;23.77;34.30;102429.03;4975998;28;45483;-72
2021/09/30 12:05:39;;;;;;;;;2.00;0.00;;;;;23.60;34.27;102422.16;4976354;28;47019;-72
2021/09/30 12:08:06;;;;;;;;;2.00;0.00;;;;;23.62;34.88;102432.78;4976734;28;45389;-72
2021/09/30 12:10:34;;;;;;;;;0.00;0.00;;;;;23.56;34.65;102434.06;4977060;28;45396;-72
2021/09/30 12:13:10;;;;;;;;;0.75;0.25;;;;;23.47;34.60;102426.66;4976335;28;45341;-72
2021/09/30 12:15:35;;;;;;;;;0.00;0.00;;;;;23.37;33.79;102418.41;4975697;28;47443;-72
2021/09/30 12:18:03;;;;;;;;;1.00;0.00;;;;;23.32;34.58;102409.81;4976113;28;45692;-72
2021/09/30 12:20:28;;;;;;;;;0.00;0.00;;;;;23.36;34.25;102405.13;4976511;28;45384;-72
2021/09/30 12:23:00;;;;;;;;;0.00;0.00;;;;;23.37;35.20;102396.09;4976332;28;53748;-72
2021/09/30 12:25:27;;;;;;;;;0.00;0.00;;;;;23.24;34.80;102393.44;4969127;28;45615;-72
2021/09/30 12:27:57;;;;;;;;;0.00;0.00;;;;;23.14;34.62;102389.66;4971556;28;45615;-72
2021/09/30 12:30:29;;;;;;;;;0.00;0.00;;;;;22.95;34.42;102367.78;4975779;28;45569;-72
2021/09/30 12:33:01;;;;;;;;;0.00;0.00;;;;;22.96;34.54;102369.47;4976116;28;45361;-72
2021/09/30 12:35:29;;;;;;;;;0.00;0.00;;;;;22.77;34.55;102378.78;4990694;28;47125;-72
2021/09/30 12:38:00;;;;;;;;;3.00;0.00;;;;;22.61;35.73;102373.59;4961921;28;45508;-72
2021/09/30 12:40:34;;;;;;;;;0.00;0.00;;;;;22.51;35.68;102368.97;4976054;28;45376;-72
2021/09/30 12:43:13;;;;;;;;;1.00;1.00;;;;;22.51;35.50;102380.56;4976191;28;45430;-72
2021/09/30 12:45:47;;;;;;;;;2.00;0.00;;;;;22.44;35.05;102373.00;4975306;28;45500;-72
2021/09/30 12:48:16;;;;;;;;;1.50;1.00;;;;;22.20;35.09;102364.81;4975640;28;45688;-72
2021/09/30 12:50:44;;;;;;;;;0.00;0.00;;;;;22.09;35.85;102365.50;4991193;28;45274;-72
2021/09/30 12:53:11;;;;;;;;;0.00;0.00;;;;;21.99;36.05;102362.56;4960424;28;45309;-72
2021/09/30 12:55:37;;;;;;;;;2.00;0.00;;;;;22.01;35.60;102346.38;4965413;28;46463;-72
2021/09/30 12:58:03;;;;;;;;;0.00;0.00;;;;;21.87;36.14;102360.66;4971800;28;45463;-72
2021/09/30 13:00:35;;;;;;;;;1.00;1.00;;;;;21.89;36.42;102353.41;4975245;28;45473;-72
2021/09/30 13:03:12;;;;;;;;;2.25;0.50;;;;;21.83;36.41;102351.97;4975655;28;45506;-72
2021/09/30 13:05:49;;;;;;;;;3.75;0.75;;;;;21.75;37.03;102342.72;4960832;28;45533;-72
2021/09/30 13:08:36;;;;;;;;;0.00;0.00;;;;;21.68;37.13;102338.75;4959874;28;45230;-72
2021/09/30 13:11:20;;;;;;;;;0.00;0.00;;;;;21.78;37.75;102337.19;4972699;28;45336;-72
2021/09/30 13:13:46;;;;;;;;;2.50;0.50;;;;;21.93;37.68;102327.31;4959140;28;45435;-72
2021/09/30 13:16:24;;;;;;;;;0.50;0.50;;;;;21.97;36.37;102334.16;4973214;28;45452;-72
2021/09/30 13:18:50;;;;;;;;;1.00;0.00;;;;;21.83;37.08;102317.19;4975340;28;45317;-72
2021/09/30 13:21:15;;;;;;;;;0.00;0.00;;;;;21.73;36.36;102318.75;4975584;28;45491;-72
2021/09/30 13:23:40;;;;;;;;;0.25;0.25;;;;;21.60;36.38;102310.63;4975460;28;45340;-72
2021/09/30 13:26:06;;;;;;;;;0.00;0.00;;;;;21.43;36.68;102302.84;4961503;28;46145;-72
2021/09/30 13:28:31;;;;;;;;;0.00;0.00;;;;;21.45;36.37;102311.63;4975141;28;45362;-72
2021/09/30 13:30:56;;;;;;;;;0.00;0.00;;;;;21.50;37.15;102308.66;4975446;28;45511;-72
2021/09/30 13:33:22;;;;;;;;;0.50;0.00;;;;;21.61;35.96;102304.34;4972245;28;45732;-72
2021/09/30 13:35:47;;;;;;;;;0.00;0.00;;;;;21.73;36.49;102296.47;4961963;28;46597;-72
2021/09/30 13:38:12;;;;;;;;;0.00;0.00;;;;;21.85;36.49;102293.00;4975203;28;45528;-72
2021/09/30 13:40:37;;;;;;;;;2.00;0.00;;;;;21.90;36.68;102301.56;4975554;28;45473;-72
2021/09/30 13:43:03;;;;;;;;;1.00;1.00;;;;;22.00;36.35;102286.63;4974278;28;45527;-72
2021/09/30 13:45:28;;;;;;;;;1.00;0.25;;;;;22.11;36.10;102270.72;4975022;28;47197;-72
2021/09/30 13:47:54;;;;;;;;;1.75;0.50;;;;;22.21;35.72;102286.19;4970772;28;45601;-72
2021/09/30 13:50:24;;;;;;;;;0.00;0.00;;;;;22.21;35.68;102284.38;4958501;28;45269;-72
2021/09/30 13:52:52;;;;;;;;;0.00;0.00;;;;;22.11;35.09;102267.19;4975612;28;45496;-72
2021/09/30 13:55:18;;;;;;;;;0.00;0.00;;;;;22.00;35.19;102275.91;4974580;28;46056;-72
2021/09/30 13:57:44;;;;;;;;;0.00;0.00;;;;;21.78;34.74;102271.13;4973678;28;45551;-72
2021/09/30 14:00:12;;;;;;;;;2.00;0.00;;;;;21.70;35.46;102268.09;4973767;28;45454;-71
2021/09/30 14:02:40;;;;;;;;;0.00;0.00;;;;;21.72;34.82;102268.00;4970469;28;45369;-73
2021/09/30 14:05:08;;;;;;;;;0.00;0.00;;;;;21.65;34.94;102266.69;4964143;28;47241;-72
2021/09/30 14:07:40;;;;;;;;;0.00;0.00;;;;;21.56;34.81;102265.44;4964314;28;45670;-72
2021/09/30 14:10:08;;;;;;;;;0.00;0.00;;;;;21.41;35.63;102258.44;4992987;28;45447;-72
2021/09/30 14:12:34;;;;;;;;;0.75;0.00;;;;;21.43;36.50;102251.19;4975812;28;45360;-72
2021/09/30 14:14:59;;;;;;;;;0.25;0.25;;;;;21.51;35.97;102256.91;4965464;28;46212;-72